createdAt,value
2022-09-15T00:01:21.873Z,13.13
2022-09-15T00:06:21.824Z,11.88
2022-09-15T00:08:51.859Z,12.00
2022-09-15T00:11:22.715Z,12.40
2022-09-15T00:13:52.464Z,12.18
2022-09-15T00:16:23.492Z,11.77
2022-09-15T00:18:53.609Z,12.73
2022-09-15T00:21:23.630Z,11.55
2022-09-15T00:23:52.448Z,11.10
2022-09-15T00:28:51.236Z,11.77
2022-09-15T00:31:22.471Z,10.48
2022-09-15T00:33:56.320Z,11.13
2022-09-15T00:36:26.931Z,11.00
2022-09-15T00:38:55.822Z,10.48
2022-09-15T00:41:25.439Z,10.85
2022-09-15T00:43:56.645Z,10.88
2022-09-15T00:46:27.147Z,11.48
2022-09-15T00:49:01.132Z,10.88
2022-09-15T00:51:35.255Z,11.57
2022-09-15T00:54:08.295Z,12.10
2022-09-15T00:56:39.916Z,11.43
2022-09-15T00:59:18.277Z,10.50
2022-09-15T01:01:48.422Z,10.75
2022-09-15T01:04:18.485Z,9.55
2022-09-15T01:06:51.379Z,10.68
2022-09-15T01:09:23.689Z,10.40
2022-09-15T01:11:52.555Z,8.93
2022-09-15T01:14:21.021Z,9.27
2022-09-15T01:17:02.626Z,8.73
2022-09-15T01:20:09.110Z,8.48
2022-09-15T01:22:49.032Z,8.52
2022-09-15T01:25:35.889Z,9.35
2022-09-15T01:28:37.626Z,8.00
2022-09-15T01:31:12.180Z,8.10
2022-09-15T01:33:46.393Z,8.52
2022-09-15T01:36:21.367Z,8.63
2022-09-15T01:39:01.161Z,7.75
2022-09-15T01:41:38.579Z,8.30
2022-09-15T01:44:10.313Z,8.45
2022-09-15T01:46:47.294Z,8.30
2022-09-15T01:49:21.328Z,8.40
2022-09-15T01:51:52.962Z,8.60
2022-09-15T01:54:23.484Z,8.60
2022-09-15T01:56:52.120Z,8.52
2022-09-15T01:59:23.265Z,8.18
2022-09-15T02:02:00.233Z,8.10
2022-09-15T02:04:34.539Z,7.35
2022-09-15T02:07:12.264Z,7.47
2022-09-15T02:09:46.966Z,7.25
2022-09-15T02:12:22.179Z,7.20
2022-09-15T02:14:58.191Z,6.38
2022-09-15T02:17:32.735Z,6.65
2022-09-15T02:20:10.433Z,6.90
2022-09-15T02:22:41.018Z,7.20
2022-09-15T02:25:12.850Z,8.00
2022-09-15T02:27:45.917Z,6.97
2022-09-15T02:30:17.285Z,6.65
2022-09-15T02:32:54.540Z,7.38
2022-09-15T02:35:25.259Z,6.60
2022-09-15T02:37:54.489Z,7.53
2022-09-15T02:40:23.913Z,7.40
2022-09-15T02:42:56.978Z,7.25
2022-09-15T02:45:31.706Z,7.32
2022-09-15T02:48:01.752Z,7.13
2022-09-15T02:50:31.176Z,7.18
2022-09-15T02:52:59.685Z,7.35
2022-09-15T02:55:29.259Z,7.25
2022-09-15T02:57:57.794Z,7.53
2022-09-15T03:00:26.963Z,6.85
2022-09-15T03:02:56.364Z,6.93
2022-09-15T03:05:28.137Z,7.32
2022-09-15T03:07:58.024Z,7.70
2022-09-15T03:10:29.865Z,7.45
2022-09-15T03:12:58.589Z,7.10
2022-09-15T03:15:28.184Z,6.82
2022-09-15T03:17:58.348Z,7.78
2022-09-15T03:20:30.455Z,6.50
2022-09-15T03:22:59.156Z,7.55
2022-09-15T03:25:28.120Z,6.68
2022-09-15T03:27:56.601Z,6.25
2022-09-15T03:30:25.252Z,6.95
2022-09-15T03:32:53.744Z,6.25
2022-09-15T03:35:22.897Z,6.05
2022-09-15T03:37:53.325Z,5.97
2022-09-15T03:40:21.957Z,6.35
2022-09-15T03:42:50.462Z,6.72
2022-09-15T03:45:19.133Z,6.15
2022-09-15T03:47:47.577Z,6.18
2022-09-15T03:50:17.371Z,6.07
2022-09-15T03:52:46.660Z,5.20
2022-09-15T03:55:18.293Z,5.55
2022-09-15T03:57:46.858Z,5.10
2022-09-15T04:00:16.303Z,4.90
2022-09-15T04:02:44.735Z,4.90
2022-09-15T04:05:14.019Z,5.30
2022-09-15T04:07:42.893Z,4.85
2022-09-15T04:12:41.495Z,4.32
2022-09-15T04:15:10.965Z,4.47
2022-09-15T04:17:39.687Z,4.70
2022-09-15T04:20:09.442Z,4.88
2022-09-15T04:22:38.170Z,4.68
2022-09-15T04:25:07.561Z,4.80
2022-09-15T04:27:36.561Z,4.38
2022-09-15T04:30:10.809Z,4.50
2022-09-15T04:32:39.910Z,4.35
2022-09-15T04:37:37.248Z,4.63
2022-09-15T04:40:06.329Z,4.30
2022-09-15T04:42:34.864Z,5.22
2022-09-15T04:45:03.469Z,4.90
2022-09-15T04:50:02.010Z,4.53
2022-09-15T04:52:32.539Z,5.43
2022-09-15T04:55:01.066Z,5.15
2022-09-15T04:57:29.574Z,5.13
2022-09-15T04:59:58.183Z,4.72
2022-09-15T05:02:27.777Z,5.40
2022-09-15T05:04:57.835Z,5.10
2022-09-15T05:07:26.578Z,5.72
2022-09-15T05:09:55.186Z,5.63
2022-09-15T05:12:23.722Z,5.20
2022-09-15T05:14:52.346Z,5.63
2022-09-15T05:17:24.065Z,6.05
2022-09-15T05:19:57.563Z,5.63
2022-09-15T05:22:27.824Z,5.70
2022-09-15T05:25:06.202Z,5.47
2022-09-15T05:30:42.471Z,5.43
2022-09-15T05:34:27.185Z,4.93
2022-09-15T05:36:58.124Z,5.75
2022-09-15T05:39:55.755Z,5.20
2022-09-15T05:42:24.620Z,5.55
2022-09-15T05:44:53.101Z,6.22
2022-09-15T05:47:21.613Z,6.38
2022-09-15T05:49:50.030Z,5.50
2022-09-15T05:52:18.525Z,6.15
2022-09-15T05:54:48.433Z,5.10
2022-09-15T05:57:17.105Z,5.88
2022-09-15T05:59:45.883Z,8.60
2022-09-15T06:04:43.141Z,5.05
2022-09-15T06:07:11.787Z,4.75
2022-09-15T06:09:40.309Z,5.30
2022-09-15T06:12:10.349Z,5.07
2022-09-15T06:14:38.921Z,4.45
2022-09-15T06:17:07.368Z,4.93
2022-09-15T06:19:36.026Z,5.80
2022-09-15T06:22:04.500Z,5.28
2022-09-15T06:24:33.154Z,4.00
2022-09-15T06:27:03.532Z,4.00
2022-09-15T06:29:33.745Z,3.90
2022-09-15T06:32:03.001Z,3.90
2022-09-15T06:34:32.863Z,4.00
2022-09-15T06:37:05.327Z,4.72
2022-09-15T06:39:35.055Z,4.38
2022-09-15T06:42:05.713Z,4.00
2022-09-15T06:44:38.022Z,4.18
2022-09-15T06:47:07.407Z,3.33
2022-09-15T06:49:38.513Z,3.70
2022-09-15T06:52:07.477Z,3.75
2022-09-15T06:57:06.517Z,3.33
2022-09-15T06:59:34.975Z,3.45
2022-09-15T07:02:05.497Z,3.38
2022-09-15T07:04:37.035Z,3.03
2022-09-15T07:07:06.397Z,3.45
2022-09-15T07:09:35.555Z,4.45
2022-09-15T07:12:04.900Z,6.18
2022-09-15T07:14:33.274Z,6.65
2022-09-15T07:17:01.830Z,7.10
2022-09-15T07:19:31.675Z,6.95
2022-09-15T07:22:00.345Z,7.70
2022-09-15T07:24:28.733Z,8.27
2022-09-15T07:26:57.303Z,7.38
2022-09-15T07:29:25.811Z,7.13
2022-09-15T07:31:54.564Z,7.65
2022-09-15T07:34:23.072Z,7.65
2022-09-15T07:36:52.973Z,7.57
2022-09-15T07:39:21.557Z,8.25
2022-09-15T07:41:50.397Z,7.93
2022-09-15T07:46:47.085Z,7.18
2022-09-15T07:49:15.747Z,8.20
2022-09-15T07:51:44.367Z,6.93
2022-09-15T07:54:17.193Z,7.22
2022-09-15T07:56:47.921Z,7.60
2022-09-15T07:59:16.555Z,7.25
2022-09-15T08:01:45.116Z,7.97
2022-09-15T08:04:13.664Z,7.53
2022-09-15T08:06:42.270Z,7.53
2022-09-15T08:09:14.739Z,7.88
2022-09-15T08:11:44.707Z,8.23
2022-09-15T08:14:13.239Z,9.15
2022-09-15T08:16:41.922Z,9.00
2022-09-15T08:21:38.704Z,8.63
2022-09-15T08:24:07.327Z,7.97
2022-09-15T08:26:38.489Z,8.68
2022-09-15T08:29:08.662Z,8.23
2022-09-15T08:31:37.337Z,8.57
2022-09-15T08:34:07.070Z,8.57
2022-09-15T08:36:35.780Z,7.13
2022-09-15T08:39:04.820Z,7.43
2022-09-15T08:41:36.767Z,7.28
2022-09-15T08:44:19.921Z,6.85
2022-09-15T08:46:53.918Z,6.85
2022-09-15T08:49:49.972Z,6.20
2022-09-15T08:52:22.733Z,7.25
2022-09-15T08:54:54.812Z,7.40
2022-09-15T08:57:26.011Z,7.15
2022-09-15T08:59:56.214Z,7.63
2022-09-15T09:02:58.331Z,7.95
2022-09-15T09:05:40.768Z,7.15
2022-09-15T09:08:32.511Z,7.40
2022-09-15T09:11:11.132Z,7.57
2022-09-15T09:13:48.784Z,7.38
2022-09-15T09:16:39.539Z,8.38
2022-09-15T09:19:33.901Z,7.45
2022-09-15T09:22:08.333Z,7.20
2022-09-15T09:24:42.543Z,6.97
2022-09-15T09:27:15.151Z,7.35
2022-09-15T09:29:51.577Z,8.10
2022-09-15T09:32:25.884Z,7.05
2022-09-15T09:35:02.353Z,7.25
2022-09-15T09:37:32.531Z,7.78
2022-09-15T09:40:01.663Z,7.10
2022-09-15T09:42:37.285Z,8.25
2022-09-15T09:45:07.686Z,7.50
2022-09-15T09:47:38.902Z,8.23
2022-09-15T09:50:36.157Z,8.23
2022-09-15T09:53:20.722Z,7.82
2022-09-15T09:55:49.319Z,7.13
2022-09-15T09:58:21.005Z,8.15
2022-09-15T10:00:50.365Z,7.18
2022-09-15T10:03:22.121Z,7.57
2022-09-15T10:06:03.825Z,7.65
2022-09-15T10:08:32.456Z,7.75
2022-09-15T10:11:06.352Z,6.55
2022-09-15T10:13:36.897Z,5.88
2022-09-15T10:16:07.927Z,5.65
2022-09-15T10:18:40.131Z,6.10
2022-09-15T10:21:11.365Z,6.93
2022-09-15T10:23:40.079Z,6.80
2022-09-15T10:26:24.018Z,6.85
2022-09-15T10:29:13.819Z,7.45
2022-09-15T10:31:44.664Z,8.65
2022-09-15T10:34:30.589Z,7.10
2022-09-15T10:37:09.699Z,8.02
2022-09-15T10:39:58.848Z,8.38
2022-09-15T10:42:42.219Z,7.95
2022-09-15T10:45:20.366Z,7.53
2022-09-15T10:48:03.376Z,8.80
2022-09-15T10:50:43.478Z,9.35
2022-09-15T10:53:18.487Z,8.57
2022-09-15T10:55:58.444Z,8.48
2022-09-15T10:58:49.753Z,9.63
2022-09-15T11:01:33.585Z,9.80
2022-09-15T11:04:20.304Z,9.80
2022-09-15T11:06:55.888Z,9.20
2022-09-15T11:09:27.283Z,9.38
2022-09-15T11:12:12.375Z,9.05
2022-09-15T11:14:51.832Z,10.18
2022-09-15T11:17:40.139Z,9.05
2022-09-15T11:20:26.183Z,9.57
2022-09-15T11:23:04.008Z,8.93
2022-09-15T11:25:36.690Z,8.48
2022-09-15T11:28:12.937Z,9.52
2022-09-15T11:30:47.869Z,9.32
2022-09-15T11:33:22.497Z,8.60
2022-09-15T11:35:56.998Z,8.57
2022-09-15T11:38:35.755Z,7.60
2022-09-15T11:44:08.505Z,7.07
2022-09-15T11:46:51.959Z,6.72
2022-09-15T11:49:24.765Z,6.05
2022-09-15T11:52:01.747Z,5.97
2022-09-15T11:54:38.936Z,5.88
2022-09-15T11:57:17.378Z,6.30
2022-09-15T11:59:52.710Z,6.88
2022-09-15T12:02:27.356Z,6.53
2022-09-15T12:05:06.698Z,6.65
2022-09-15T12:07:40.478Z,6.97
2022-09-15T12:10:19.258Z,6.60
2022-09-15T12:12:48.540Z,6.35
2022-09-15T12:15:20.033Z,7.22
2022-09-15T12:17:54.977Z,6.53
2022-09-15T12:20:26.977Z,5.82
2022-09-15T12:23:03.857Z,6.47
2022-09-15T12:25:43.480Z,6.65
2022-09-15T12:28:38.814Z,6.60
2022-09-15T12:31:25.330Z,6.55
2022-09-15T12:33:59.246Z,6.53
2022-09-15T12:36:46.547Z,6.63
2022-09-15T12:39:31.636Z,6.80
2022-09-15T12:42:23.368Z,6.97
2022-09-15T12:44:55.919Z,6.93
2022-09-15T12:47:39.342Z,6.88
2022-09-15T12:50:25.292Z,7.55
2022-09-15T12:52:58.228Z,8.27
2022-09-15T12:55:29.043Z,7.30
2022-09-15T12:58:01.406Z,6.65
2022-09-15T13:00:45.573Z,7.65
2022-09-15T13:04:23.129Z,7.95
2022-09-15T13:07:24.790Z,6.50
2022-09-15T13:10:02.366Z,6.50
2022-09-15T13:12:37.120Z,5.80
2022-09-15T13:15:13.662Z,5.65
2022-09-15T13:17:45.739Z,5.97
2022-09-15T13:20:23.387Z,6.00
2022-09-15T13:22:56.571Z,6.57
2022-09-15T13:25:29.522Z,5.43
2022-09-15T13:28:00.911Z,5.40
2022-09-15T13:30:45.821Z,5.40
2022-09-15T13:39:37.087Z,5.68
2022-09-15T13:42:25.029Z,5.40
2022-09-15T13:45:29.551Z,4.90
2022-09-15T13:48:23.269Z,5.00
2022-09-15T13:50:59.682Z,5.25
2022-09-15T13:53:45.590Z,4.75
2022-09-15T13:56:20.710Z,4.30
2022-09-15T13:59:01.598Z,4.68
2022-09-15T14:01:39.022Z,4.80
2022-09-15T14:04:13.418Z,4.78
2022-09-15T14:06:44.524Z,6.00
2022-09-15T14:09:17.119Z,6.60
2022-09-15T14:11:50.185Z,7.55
2022-09-15T14:14:35.709Z,8.82
2022-09-15T14:17:04.346Z,7.60
2022-09-15T14:19:36.817Z,7.43
2022-09-15T14:22:26.229Z,8.90
2022-09-15T14:24:56.178Z,7.68
2022-09-15T14:27:27.442Z,7.95
2022-09-15T14:29:57.990Z,8.68
2022-09-15T14:32:29.901Z,8.60
2022-09-15T14:35:20.634Z,8.73
2022-09-15T14:37:58.770Z,12.38
2022-09-15T14:40:31.056Z,12.20
2022-09-15T14:42:59.788Z,12.30
2022-09-15T14:48:30.168Z,7.50
2022-09-15T14:51:08.265Z,8.60
2022-09-15T14:53:43.828Z,8.93
2022-09-15T14:56:21.023Z,4.63
2022-09-15T14:58:54.078Z,4.07
2022-09-15T15:01:27.271Z,7.05
2022-09-15T15:04:10.396Z,6.50
2022-09-15T15:06:52.424Z,4.22
2022-09-15T15:09:26.122Z,3.85
2022-09-15T15:11:58.199Z,10.98
2022-09-15T15:14:27.348Z,3.33
2022-09-15T15:17:03.293Z,4.97
2022-09-15T15:19:34.015Z,3.90
2022-09-15T15:22:22.234Z,4.93
2022-09-15T15:24:53.384Z,4.97
2022-09-15T15:27:40.672Z,5.20
2022-09-15T15:30:36.206Z,5.63
2022-09-15T15:33:06.645Z,5.25
2022-09-15T15:35:40.431Z,5.95
2022-09-15T15:38:25.400Z,5.38
2022-09-15T15:41:01.538Z,4.65
2022-09-15T15:43:36.913Z,4.97
2022-09-15T15:46:07.739Z,4.50
2022-09-15T15:48:38.615Z,6.63
2022-09-15T15:51:11.188Z,4.78
2022-09-15T15:53:41.143Z,4.72
2022-09-15T15:56:09.769Z,4.60
2022-09-15T15:58:38.208Z,5.38
2022-09-15T16:01:06.788Z,4.57
2022-09-15T16:03:35.513Z,5.20
2022-09-15T16:06:04.293Z,4.80
2022-09-15T16:08:34.952Z,4.03
2022-09-15T16:11:05.918Z,4.22
2022-09-15T16:13:34.479Z,4.80
2022-09-15T16:16:03.590Z,5.10
2022-09-15T16:18:32.144Z,6.93
2022-09-15T16:21:00.742Z,7.28
2022-09-15T16:23:29.343Z,6.78
2022-09-15T16:26:01.556Z,7.88
2022-09-15T16:28:31.817Z,8.43
2022-09-15T16:31:01.074Z,8.63
2022-09-15T16:33:31.001Z,9.23
2022-09-15T16:36:06.926Z,9.30
2022-09-15T16:38:37.387Z,9.70
2022-09-15T16:41:13.570Z,9.88
2022-09-15T16:43:44.128Z,8.98
2022-09-15T16:46:14.347Z,9.43
2022-09-15T16:48:47.349Z,9.90
2022-09-15T16:51:27.922Z,10.75
2022-09-15T16:53:59.372Z,8.40
2022-09-15T16:56:28.415Z,8.07
2022-09-15T16:59:01.451Z,7.90
2022-09-15T17:01:30.351Z,7.85
2022-09-15T17:06:31.211Z,7.90
2022-09-15T17:08:59.943Z,8.40
2022-09-15T17:11:30.676Z,9.07
2022-09-15T17:14:03.253Z,7.65
2022-09-15T17:16:32.354Z,7.30
2022-09-15T17:19:03.241Z,7.72
2022-09-15T17:24:00.536Z,6.70
2022-09-15T17:26:32.009Z,7.03
2022-09-15T17:29:05.396Z,7.30
2022-09-15T17:31:34.664Z,7.43
2022-09-15T17:34:06.398Z,6.55
2022-09-15T17:36:37.475Z,6.57
2022-09-15T17:39:08.750Z,7.13
2022-09-15T17:41:41.851Z,7.32
2022-09-15T17:44:14.104Z,7.38
2022-09-15T17:46:43.669Z,7.60
2022-09-15T17:49:12.947Z,7.93
2022-09-15T17:51:47.054Z,7.38
2022-09-15T17:54:16.377Z,7.30
2022-09-15T17:56:45.418Z,7.13
2022-09-15T17:59:16.454Z,7.15
2022-09-15T18:01:45.813Z,9.38
2022-09-15T18:04:15.143Z,9.55
2022-09-15T18:06:49.816Z,10.13
2022-09-15T18:09:19.451Z,9.32
2022-09-15T18:11:49.257Z,8.63
2022-09-15T18:14:20.184Z,9.45
2022-09-15T18:16:49.660Z,9.70
2022-09-15T18:19:18.829Z,16.83
2022-09-15T18:21:53.215Z,10.85
2022-09-15T18:24:22.739Z,9.75
2022-09-15T18:26:52.606Z,10.27
2022-09-15T18:29:23.334Z,11.15
2022-09-15T18:31:53.171Z,11.02
2022-09-15T18:34:22.564Z,12.45
2022-09-15T18:36:51.689Z,10.85
2022-09-15T18:39:20.823Z,11.45
2022-09-15T18:41:50.178Z,10.27
2022-09-15T18:44:19.410Z,11.23
2022-09-15T18:46:50.044Z,11.20
2022-09-15T18:49:19.329Z,13.52
2022-09-15T18:51:51.468Z,11.15
2022-09-15T18:54:21.394Z,11.27
2022-09-15T18:56:51.589Z,11.23
2022-09-15T18:59:20.651Z,11.88
2022-09-15T19:01:53.392Z,12.65
2022-09-15T19:04:22.383Z,10.95
2022-09-15T19:09:20.067Z,11.80
2022-09-15T19:11:48.825Z,11.88
2022-09-15T19:14:19.231Z,10.70
2022-09-15T19:16:58.050Z,11.20
2022-09-15T19:19:27.244Z,11.52
2022-09-15T19:21:55.815Z,13.52
2022-09-15T19:24:26.627Z,12.10
2022-09-15T19:26:55.199Z,8.63
2022-09-15T19:29:23.799Z,11.18
2022-09-15T19:31:53.646Z,10.27
2022-09-15T19:34:22.460Z,10.15
2022-09-15T19:36:50.985Z,9.57
2022-09-15T19:39:19.555Z,10.55
2022-09-15T19:41:48.100Z,9.55
2022-09-15T19:44:17.197Z,9.10
2022-09-15T19:46:46.037Z,10.85
2022-09-15T19:49:16.132Z,10.65
2022-09-15T19:51:44.957Z,10.43
2022-09-15T19:54:13.519Z,10.32
2022-09-15T19:56:41.971Z,9.73
2022-09-15T19:59:11.322Z,10.85
2022-09-15T20:01:39.787Z,11.93
2022-09-15T20:04:08.437Z,11.60
2022-09-15T20:06:38.543Z,11.25
2022-09-15T20:09:08.847Z,11.27
2022-09-15T20:11:37.713Z,11.88
2022-09-15T20:16:38.687Z,10.93
2022-09-15T20:19:07.447Z,11.63
2022-09-15T20:21:49.870Z,11.52
2022-09-15T20:24:20.399Z,12.30
2022-09-15T20:26:49.575Z,13.73
2022-09-15T20:29:18.800Z,12.48
2022-09-15T20:31:47.533Z,13.70
2022-09-15T20:34:16.020Z,12.25
2022-09-15T20:36:45.946Z,13.18
2022-09-15T20:39:16.132Z,14.68
2022-09-15T20:41:45.902Z,13.77
2022-09-15T20:44:14.588Z,14.50
2022-09-15T20:46:50.670Z,12.82
2022-09-15T20:49:19.118Z,10.50
2022-09-15T20:51:51.661Z,12.48
2022-09-15T20:54:20.266Z,10.98
2022-09-15T20:56:48.685Z,11.85
2022-09-15T20:59:17.240Z,11.23
2022-09-15T21:01:46.567Z,10.20
2022-09-15T21:04:14.975Z,11.40
2022-09-15T21:06:45.534Z,9.88
2022-09-15T21:09:15.865Z,9.98
2022-09-15T21:11:44.553Z,9.68
2022-09-15T21:14:14.428Z,10.02
2022-09-15T21:16:45.729Z,9.95
2022-09-15T21:19:14.307Z,9.50
2022-09-15T21:21:42.875Z,10.65
2022-09-15T21:24:11.862Z,8.80
2022-09-15T21:26:56.753Z,9.32
2022-09-15T21:29:25.707Z,8.95
2022-09-15T21:34:28.180Z,8.73
2022-09-15T21:36:59.109Z,9.77
2022-09-15T21:39:27.726Z,9.20
2022-09-15T21:42:05.398Z,8.82
2022-09-15T21:44:34.004Z,8.68
2022-09-15T21:47:05.101Z,9.38
2022-09-15T21:49:33.736Z,8.40
2022-09-15T21:52:02.262Z,7.85
2022-09-15T21:54:31.583Z,7.82
2022-09-15T21:57:01.404Z,8.65
2022-09-15T21:59:30.045Z,8.30
2022-09-15T22:01:58.553Z,7.97
2022-09-15T22:04:26.985Z,7.60
2022-09-15T22:06:55.494Z,8.10
2022-09-15T22:09:24.003Z,7.13
2022-09-15T22:11:52.468Z,8.63
2022-09-15T22:14:22.711Z,8.25
2022-09-15T22:16:51.338Z,7.70
2022-09-15T22:19:22.961Z,8.05
2022-09-15T22:21:55.438Z,8.05
2022-09-15T22:24:24.174Z,8.05
2022-09-15T22:26:52.636Z,7.45
2022-09-15T22:29:22.686Z,7.53
2022-09-15T22:31:51.257Z,7.85
2022-09-15T22:34:19.834Z,7.63
2022-09-15T22:36:48.405Z,8.02
2022-09-15T22:39:16.783Z,7.70
2022-09-15T22:41:45.251Z,7.80
2022-09-15T22:44:19.913Z,6.88
2022-09-15T22:46:51.493Z,7.90
2022-09-15T22:49:20.039Z,9.07
2022-09-15T22:51:48.471Z,8.55
2022-09-15T22:54:17.025Z,9.13
2022-09-15T22:56:47.306Z,8.52
2022-09-15T22:59:17.189Z,12.25
2022-09-15T23:01:45.875Z,19.85
2022-09-15T23:04:16.081Z,37.80
2022-09-15T23:06:44.606Z,44.25
2022-09-15T23:09:13.472Z,43.17
2022-09-15T23:14:15.169Z,31.25
2022-09-15T23:16:44.420Z,30.40
2022-09-15T23:19:13.687Z,24.45
2022-09-15T23:21:43.764Z,26.92
2022-09-15T23:24:14.156Z,26.45
2022-09-15T23:26:42.784Z,27.73
2022-09-15T23:29:11.352Z,24.83
2022-09-15T23:31:39.980Z,22.77
2022-09-15T23:34:08.537Z,19.85
2022-09-15T23:36:37.095Z,17.85
2022-09-15T23:39:09.109Z,15.65
2022-09-15T23:41:39.159Z,17.02
2022-09-15T23:44:07.767Z,14.88
2022-09-15T23:46:36.238Z,12.77
2022-09-15T23:49:05.260Z,11.35
2022-09-15T23:51:33.617Z,11.65
2022-09-15T23:54:03.879Z,10.98
2022-09-15T23:56:34.038Z,10.23
2022-09-15T23:59:04.670Z,10.48
